Burnstad, North Dakota
Current Conditions -  °F | °C
As of 11:55 AM on Friday 21 Nov 2014 (Local Time) from K7L2 Reporting Station
Clear Clear  
Wind Chill: 25°   Ceiling: Unl
Heat Index: 30°   Visibility: 10mi
Dew Point: 23°   Wind: 5mph
Humidity: 75%   Direction: 210°SSW
Pressure: 29.77"   Gusts: NA
Location:  46.2334°N, 99.6522°W
Report Text: K7L2 211755Z AUTO 21004KT 10SM CLR M01/M05 A2977 RMK AO2
Loading
Personal Weather Stations






























Interactive Weather Map New forecast layout! Learn more

10-Day Weather Forecast

Advertisements
Track Severe Weather on mobile